createdAt,value
2023-04-11T00:01:53.697Z,9.40
2023-04-11T00:04:25.642Z,9.40
2023-04-11T00:06:53.566Z,9.40
2023-04-11T00:09:21.175Z,9.50
2023-04-11T00:11:48.737Z,9.40
2023-04-11T00:14:17.792Z,9.30
2023-04-11T00:16:45.590Z,9.30
2023-04-11T00:19:13.362Z,9.20
2023-04-11T00:21:41.029Z,9.10
2023-04-11T00:24:08.804Z,9.10
2023-04-11T00:26:36.474Z,9.10
2023-04-11T00:29:04.296Z,9.20
2023-04-11T00:31:32.233Z,9.20
2023-04-11T00:33:59.764Z,9.20
2023-04-11T00:36:27.682Z,9.10
2023-04-11T00:38:55.537Z,9.20
2023-04-11T00:41:24.742Z,9.20
2023-04-11T00:43:54.428Z,9.20
2023-04-11T00:46:22.290Z,9.20
2023-04-11T00:48:50.101Z,9.20
2023-04-11T00:51:19.917Z,9.20
2023-04-11T00:53:47.586Z,9.20
2023-04-11T00:56:15.638Z,9.20
2023-04-11T00:58:43.510Z,9.30
2023-04-11T01:01:11.492Z,9.30
2023-04-11T01:03:39.810Z,9.40
2023-04-11T01:06:09.728Z,9.40
2023-04-11T01:08:39.138Z,9.30
2023-04-11T01:11:08.447Z,9.20
2023-04-11T01:13:39.522Z,9.20
2023-04-11T01:16:07.638Z,9.10
2023-04-11T01:18:35.247Z,9.00
2023-04-11T01:21:03.302Z,8.90
2023-04-11T01:23:30.977Z,8.90
2023-04-11T01:25:58.493Z,8.70
2023-04-11T01:28:26.099Z,8.70
2023-04-11T01:30:53.611Z,8.80
2023-04-11T01:33:21.369Z,8.80
2023-04-11T01:35:49.195Z,8.80
2023-04-11T01:38:16.820Z,8.80
2023-04-11T01:40:46.131Z,8.70
2023-04-11T01:43:13.991Z,8.60
2023-04-11T01:45:41.880Z,8.60
2023-04-11T01:48:09.626Z,8.70
2023-04-11T01:50:37.294Z,8.60
2023-04-11T01:53:05.125Z,8.70
2023-04-11T01:55:32.668Z,8.70
2023-04-11T01:58:00.151Z,8.60
2023-04-11T02:00:27.601Z,8.60
2023-04-11T02:02:55.178Z,8.60
2023-04-11T02:05:23.919Z,8.60
2023-04-11T02:07:52.235Z,8.50
2023-04-11T02:10:19.778Z,8.60
2023-04-11T02:12:47.409Z,8.60
2023-04-11T02:15:14.918Z,8.60
2023-04-11T02:17:45.609Z,8.60
2023-04-11T02:20:14.946Z,8.60
2023-04-11T02:22:42.512Z,8.50
2023-04-11T02:25:10.150Z,8.60
2023-04-11T02:27:37.782Z,8.60
2023-04-11T02:30:08.818Z,8.60
2023-04-11T02:32:38.008Z,8.60
2023-04-11T02:35:07.909Z,8.60
2023-04-11T02:37:36.154Z,8.60
2023-04-11T02:40:04.695Z,8.60
2023-04-11T02:42:32.295Z,8.50
2023-04-11T02:45:00.034Z,8.40
2023-04-11T02:47:27.721Z,8.50
2023-04-11T02:49:55.343Z,8.50
2023-04-11T02:52:22.803Z,8.40
2023-04-11T02:54:50.553Z,8.30
2023-04-11T02:57:18.013Z,8.30
2023-04-11T02:59:45.663Z,8.40
2023-04-11T03:02:13.522Z,8.30
2023-04-11T03:04:41.176Z,8.30
2023-04-11T03:07:08.701Z,8.20
2023-04-11T03:09:37.141Z,8.30
2023-04-11T03:12:05.516Z,8.20
2023-04-11T03:14:33.103Z,8.20
2023-04-11T03:17:00.722Z,8.20
2023-04-11T03:19:28.642Z,8.10
2023-04-11T03:21:56.683Z,8.10
2023-04-11T03:24:24.281Z,8.10
2023-04-11T03:26:51.802Z,8.10
2023-04-11T03:29:19.351Z,8.10
2023-04-11T03:31:47.078Z,8.00
2023-04-11T03:34:14.559Z,8.00
2023-04-11T03:36:42.214Z,8.00
2023-04-11T03:39:09.977Z,8.00
2023-04-11T03:41:37.535Z,8.00
2023-04-11T03:44:05.109Z,8.00
2023-04-11T03:46:32.736Z,8.00
2023-04-11T03:49:00.266Z,7.90
2023-04-11T03:51:27.862Z,7.90
2023-04-11T03:53:55.818Z,7.80
2023-04-11T03:56:23.476Z,7.80
2023-04-11T03:58:51.007Z,7.80
2023-04-11T04:01:18.632Z,7.80
2023-04-11T04:03:46.320Z,7.70
2023-04-11T04:06:13.926Z,7.80
2023-04-11T04:08:41.706Z,7.80
2023-04-11T04:11:09.193Z,7.80
2023-04-11T04:13:36.716Z,7.90
2023-04-11T04:16:04.736Z,8.00
2023-04-11T04:18:32.292Z,8.00
2023-04-11T04:20:59.797Z,7.90
2023-04-11T04:23:27.472Z,8.00
2023-04-11T04:25:58.186Z,8.10
2023-04-11T04:28:26.442Z,8.00
2023-04-11T04:30:54.525Z,8.00
2023-04-11T04:33:22.251Z,7.90
2023-04-11T04:35:52.123Z,7.80
2023-04-11T04:38:19.771Z,7.70
2023-04-11T04:40:50.388Z,7.70
2023-04-11T04:43:23.603Z,7.70
2023-04-11T04:45:51.425Z,7.60
2023-04-11T04:48:19.121Z,7.60
2023-04-11T04:50:46.585Z,7.50
2023-04-11T04:53:14.043Z,7.50
2023-04-11T04:55:41.462Z,7.50
2023-04-11T04:58:08.922Z,7.50
2023-04-11T05:00:36.843Z,7.60
2023-04-11T05:03:05.948Z,7.50
2023-04-11T05:05:33.611Z,7.60
2023-04-11T05:08:01.428Z,7.60
2023-04-11T05:10:29.004Z,7.60
2023-04-11T05:12:56.972Z,7.60
2023-04-11T05:15:24.410Z,7.60
2023-04-11T05:17:51.854Z,7.60
2023-04-11T05:20:20.112Z,7.70
2023-04-11T05:22:49.361Z,7.70
2023-04-11T05:25:17.616Z,7.70
2023-04-11T05:27:45.341Z,7.70
2023-04-11T05:30:13.371Z,7.80
2023-04-11T05:32:40.826Z,7.80
2023-04-11T05:35:08.516Z,7.90
2023-04-11T05:37:37.639Z,7.90
2023-04-11T05:40:08.089Z,7.90
2023-04-11T05:42:35.748Z,7.90
2023-04-11T05:45:03.223Z,8.00
2023-04-11T05:47:31.304Z,8.10
2023-04-11T05:49:58.774Z,8.40
2023-04-11T05:52:26.610Z,8.60
2023-04-11T05:54:53.995Z,8.90
2023-04-11T05:57:22.066Z,9.40
2023-04-11T05:59:53.410Z,10.40
2023-04-11T06:02:21.269Z,11.40
2023-04-11T06:04:48.805Z,11.90
2023-04-11T06:07:16.501Z,12.30
2023-04-11T06:09:44.556Z,12.40
2023-04-11T06:12:11.984Z,12.90
2023-04-11T06:14:40.710Z,14.00
2023-04-11T06:17:08.265Z,14.40
2023-04-11T06:19:35.672Z,14.80
2023-04-11T06:22:03.121Z,15.00
2023-04-11T06:24:40.869Z,15.80
2023-04-11T06:27:11.396Z,16.30
2023-04-11T06:29:39.928Z,16.40
2023-04-11T06:32:07.969Z,16.90
2023-04-11T06:34:35.794Z,16.80
2023-04-11T06:37:03.391Z,16.90
2023-04-11T06:39:30.980Z,17.60
2023-04-11T06:41:58.462Z,17.90
2023-04-11T06:44:26.202Z,17.70
2023-04-11T06:46:53.814Z,17.10
2023-04-11T06:49:21.462Z,16.80
2023-04-11T06:51:51.891Z,16.90
2023-04-11T06:54:19.435Z,16.90
2023-04-11T06:56:47.587Z,17.10
2023-04-11T06:59:15.010Z,16.90
2023-04-11T07:01:42.649Z,17.00
2023-04-11T07:04:10.279Z,17.40
2023-04-11T07:06:38.043Z,17.50
2023-04-11T07:09:06.206Z,16.00
2023-04-11T07:11:34.259Z,16.40
2023-04-11T07:14:02.175Z,17.10
2023-04-11T07:16:29.656Z,17.30
2023-04-11T07:18:57.670Z,18.30
2023-04-11T07:21:25.189Z,18.90
2023-04-11T07:23:53.579Z,19.40
2023-04-11T07:26:23.899Z,19.30
2023-04-11T07:28:51.333Z,19.10
2023-04-11T07:31:21.679Z,17.80
2023-04-11T07:33:49.360Z,17.80
2023-04-11T07:36:17.217Z,18.40
2023-04-11T07:38:44.724Z,18.60
2023-04-11T07:41:12.172Z,17.60
2023-04-11T07:43:39.766Z,16.60
2023-04-11T07:46:07.495Z,15.60
2023-04-11T07:48:34.985Z,16.00
2023-04-11T07:51:02.510Z,16.20
2023-04-11T07:53:32.794Z,16.50
2023-04-11T07:56:00.838Z,17.40
2023-04-11T07:58:28.717Z,19.40
2023-04-11T08:00:56.403Z,20.30
2023-04-11T08:03:24.128Z,20.40
2023-04-11T08:05:52.426Z,21.50
2023-04-11T08:08:19.841Z,21.40
2023-04-11T08:10:47.430Z,19.80
2023-04-11T08:13:14.944Z,19.80
2023-04-11T08:15:42.623Z,20.30
2023-04-11T08:18:12.189Z,21.10
2023-04-11T08:20:41.041Z,21.30
2023-04-11T08:23:10.653Z,21.30
2023-04-11T08:25:39.264Z,22.00
2023-04-11T08:28:07.045Z,22.00
2023-04-11T08:30:34.555Z,21.40
2023-04-11T08:33:02.160Z,21.00
2023-04-11T08:35:29.942Z,21.20
2023-04-11T08:37:57.421Z,21.60
2023-04-11T08:40:26.982Z,21.90
2023-04-11T08:43:04.245Z,22.80
2023-04-11T08:45:31.876Z,22.70
2023-04-11T08:47:59.440Z,21.50
2023-04-11T08:50:27.118Z,20.80
2023-04-11T08:52:55.243Z,19.90
2023-04-11T08:55:22.684Z,20.10
2023-04-11T08:57:50.185Z,20.90
2023-04-11T09:00:23.874Z,21.80
2023-04-11T09:03:02.322Z,21.80
2023-04-11T09:05:34.974Z,23.40
2023-04-11T09:08:06.424Z,22.90
2023-04-11T09:10:34.824Z,21.40
2023-04-11T09:13:19.375Z,22.50
2023-04-11T09:15:47.318Z,23.20
2023-04-11T09:18:34.363Z,23.00
2023-04-11T09:21:05.315Z,22.00
2023-04-11T09:23:33.007Z,21.90
2023-04-11T09:26:01.076Z,21.60
2023-04-11T09:28:28.970Z,20.90
2023-04-11T09:30:57.165Z,22.50
2023-04-11T09:33:30.054Z,21.90
2023-04-11T09:35:57.717Z,22.30
2023-04-11T09:38:44.205Z,23.20
2023-04-11T09:41:12.086Z,22.90
2023-04-11T09:43:55.892Z,22.30
2023-04-11T09:46:23.747Z,22.00
2023-04-11T09:48:53.143Z,22.40
2023-04-11T09:51:35.298Z,21.50
2023-04-11T09:54:06.386Z,21.40
2023-04-11T09:56:35.971Z,21.20
2023-04-11T09:59:05.783Z,21.50
2023-04-11T10:01:33.773Z,22.40
2023-04-11T10:04:01.761Z,23.40
2023-04-11T10:06:45.591Z,23.00
2023-04-11T10:09:13.987Z,21.70
2023-04-11T10:11:45.183Z,21.90
2023-04-11T10:14:37.952Z,23.10
2023-04-11T10:17:23.633Z,22.90
2023-04-11T10:19:59.567Z,21.90
2023-04-11T10:22:43.570Z,20.30
2023-04-11T10:25:20.116Z,19.60
2023-04-11T10:28:00.611Z,18.90
2023-04-11T10:30:40.160Z,19.60
2023-04-11T10:33:22.366Z,19.80
2023-04-11T10:36:12.492Z,19.10
2023-04-11T10:38:48.927Z,18.90
2023-04-11T10:41:33.474Z,20.90
2023-04-11T10:44:18.638Z,21.10
2023-04-11T10:46:48.606Z,21.70
2023-04-11T10:49:38.189Z,23.20
2023-04-11T10:52:24.030Z,20.20
2023-04-11T10:54:53.270Z,18.90
2023-04-11T10:57:23.096Z,18.90
2023-04-11T10:59:50.749Z,21.00
2023-04-11T11:02:20.150Z,21.80
2023-04-11T11:04:48.895Z,22.20
2023-04-11T11:07:17.506Z,22.10
2023-04-11T11:09:49.707Z,21.40
2023-04-11T11:12:17.466Z,21.50
2023-04-11T11:14:46.522Z,21.60
2023-04-11T11:17:15.810Z,22.20
2023-04-11T11:19:48.024Z,20.50
2023-04-11T11:22:16.810Z,18.40
2023-04-11T11:24:44.209Z,17.30
2023-04-11T11:27:25.112Z,16.60
2023-04-11T11:29:53.532Z,16.70
2023-04-11T11:32:25.344Z,19.50
2023-04-11T11:34:53.468Z,21.60
2023-04-11T11:37:21.629Z,21.70
2023-04-11T11:39:50.037Z,20.60
2023-04-11T11:42:18.215Z,19.40
2023-04-11T11:44:46.016Z,18.80
2023-04-11T11:47:16.817Z,18.90
2023-04-11T11:49:55.657Z,19.90
2023-04-11T11:52:42.028Z,19.60
2023-04-11T11:55:18.395Z,20.60
2023-04-11T11:57:50.349Z,20.00
2023-04-11T12:00:25.131Z,19.50
2023-04-11T12:02:54.977Z,20.10
2023-04-11T12:05:30.281Z,19.40
2023-04-11T12:08:00.562Z,18.90
2023-04-11T12:10:42.274Z,18.70
2023-04-11T12:13:13.561Z,18.00
2023-04-11T12:15:43.817Z,17.20
2023-04-11T12:18:11.557Z,17.00
2023-04-11T12:20:39.108Z,16.70
2023-04-11T12:23:06.602Z,16.20
2023-04-11T12:25:34.108Z,15.70
2023-04-11T12:28:01.590Z,15.60
2023-04-11T12:30:30.109Z,15.50
2023-04-11T12:32:57.749Z,15.90
2023-04-11T12:35:25.582Z,15.80
2023-04-11T12:37:53.132Z,15.50
2023-04-11T12:40:20.922Z,14.80
2023-04-11T12:42:56.873Z,14.50
2023-04-11T12:45:25.971Z,14.60
2023-04-11T12:47:53.835Z,14.90
2023-04-11T12:50:23.858Z,15.00
2023-04-11T12:52:52.481Z,15.30
2023-04-11T12:55:20.262Z,15.50
2023-04-11T12:57:47.760Z,15.30
2023-04-11T13:00:15.765Z,15.30
2023-04-11T13:02:45.264Z,15.30
2023-04-11T13:05:17.035Z,15.50
2023-04-11T13:07:45.637Z,15.20
2023-04-11T13:10:14.463Z,15.10
2023-04-11T13:12:44.882Z,15.10
2023-04-11T13:15:14.707Z,15.20
2023-04-11T13:17:42.422Z,15.30
2023-04-11T13:20:11.140Z,15.60
2023-04-11T13:22:39.718Z,15.90
2023-04-11T13:25:08.271Z,16.00
2023-04-11T13:27:36.405Z,16.10
2023-04-11T13:30:05.135Z,16.40
2023-04-11T13:32:32.651Z,16.50
2023-04-11T13:35:00.605Z,16.60
2023-04-11T13:37:28.519Z,16.30
2023-04-11T13:39:56.165Z,16.50
2023-04-11T13:42:23.616Z,16.30
2023-04-11T13:44:51.154Z,16.10
2023-04-11T13:47:18.578Z,16.10
2023-04-11T13:49:46.019Z,15.90
2023-04-11T13:52:13.448Z,16.00
2023-04-11T13:54:40.938Z,16.30
2023-04-11T13:57:09.770Z,16.50
2023-04-11T13:59:37.427Z,16.50
2023-04-11T14:02:04.985Z,15.90
2023-04-11T14:04:32.684Z,15.90
2023-04-11T14:07:00.226Z,15.90
2023-04-11T14:09:27.724Z,16.20
2023-04-11T14:11:55.143Z,16.30
2023-04-11T14:14:22.795Z,16.40
2023-04-11T14:16:50.581Z,16.60
2023-04-11T14:19:18.037Z,17.00
2023-04-11T14:21:45.929Z,16.80
2023-04-11T14:24:13.623Z,16.30
2023-04-11T14:26:42.228Z,16.40
2023-04-11T14:29:10.012Z,16.10
2023-04-11T14:31:37.625Z,16.10
2023-04-11T14:34:05.197Z,16.30
2023-04-11T14:36:32.876Z,16.60
2023-04-11T14:39:00.620Z,16.40
2023-04-11T14:41:28.054Z,16.20
2023-04-11T14:43:55.795Z,16.10
2023-04-11T14:46:23.457Z,15.90
2023-04-11T14:48:50.911Z,15.90
2023-04-11T14:51:19.126Z,16.10
2023-04-11T14:53:53.312Z,16.00
2023-04-11T14:56:24.303Z,15.90
2023-04-11T14:58:52.333Z,15.60
2023-04-11T15:01:20.332Z,15.30
2023-04-11T15:03:48.006Z,15.00
2023-04-11T15:06:15.493Z,15.00
2023-04-11T15:08:42.901Z,15.10
2023-04-11T15:11:10.321Z,15.10
2023-04-11T15:13:37.744Z,15.10
2023-04-11T15:16:06.623Z,15.30
2023-04-11T15:18:35.040Z,15.40
2023-04-11T15:21:03.509Z,15.40
2023-04-11T15:23:31.183Z,15.40
2023-04-11T15:25:59.983Z,15.30
2023-04-11T15:28:31.588Z,15.10
2023-04-11T15:30:59.444Z,15.00
2023-04-11T15:33:27.897Z,15.20
2023-04-11T15:35:57.789Z,15.10
2023-04-11T15:38:26.604Z,15.00
2023-04-11T15:40:56.388Z,15.00
2023-04-11T15:43:24.181Z,15.00
2023-04-11T15:45:54.918Z,15.20
2023-04-11T15:48:22.462Z,15.30
2023-04-11T15:50:50.864Z,15.00
2023-04-11T15:53:18.590Z,14.90
2023-04-11T15:55:47.918Z,14.90
2023-04-11T15:58:15.571Z,14.90
2023-04-11T16:00:44.042Z,15.00
2023-04-11T16:03:11.754Z,15.10
2023-04-11T16:05:41.380Z,15.10
2023-04-11T16:08:08.908Z,15.00
2023-04-11T16:10:36.649Z,14.80
2023-04-11T16:13:04.115Z,14.70
2023-04-11T16:15:32.270Z,14.80
2023-04-11T16:17:59.717Z,14.70
2023-04-11T16:20:27.134Z,14.70
2023-04-11T16:22:54.535Z,14.70
2023-04-11T16:25:22.189Z,14.70
2023-04-11T16:27:51.620Z,14.80
2023-04-11T16:30:19.520Z,14.70
2023-04-11T16:32:47.376Z,14.60
2023-04-11T16:35:14.782Z,14.30
2023-04-11T16:37:42.363Z,14.30
2023-04-11T16:40:12.974Z,14.40
2023-04-11T16:42:40.551Z,14.30
2023-04-11T16:45:09.998Z,14.20
2023-04-11T16:47:38.097Z,14.00
2023-04-11T16:50:06.267Z,13.80
2023-04-11T16:52:33.977Z,13.60
2023-04-11T16:55:03.150Z,13.40
2023-04-11T16:57:33.546Z,13.50
2023-04-11T17:00:08.046Z,13.40
2023-04-11T17:02:35.791Z,13.50
2023-04-11T17:05:04.530Z,13.30
2023-04-11T17:07:33.529Z,12.90
2023-04-11T17:10:01.455Z,12.70
2023-04-11T17:12:29.017Z,12.40
2023-04-11T17:14:56.729Z,12.40
2023-04-11T17:17:25.027Z,12.30
2023-04-11T17:19:52.849Z,12.40
2023-04-11T17:22:20.690Z,12.30
2023-04-11T17:24:48.269Z,12.30
2023-04-11T17:27:15.710Z,12.00
2023-04-11T17:29:43.350Z,11.90
2023-04-11T17:32:11.935Z,11.90
2023-04-11T17:34:39.445Z,11.90
2023-04-11T17:37:07.268Z,11.90
2023-04-11T17:39:34.738Z,11.90
2023-04-11T17:42:02.229Z,11.80
2023-04-11T17:44:30.210Z,11.90
2023-04-11T17:46:57.804Z,11.80
2023-04-11T17:49:27.335Z,11.80
2023-04-11T17:51:58.867Z,11.80
2023-04-11T17:54:27.240Z,11.80
2023-04-11T17:56:54.963Z,11.80
2023-04-11T17:59:24.307Z,11.80
2023-04-11T18:01:53.610Z,12.00
2023-04-11T18:04:21.659Z,11.90
2023-04-11T18:06:49.187Z,11.90
2023-04-11T18:09:17.318Z,11.90
2023-04-11T18:11:44.975Z,11.90
2023-04-11T18:14:12.524Z,11.90
2023-04-11T18:16:40.563Z,11.80
2023-04-11T18:19:08.662Z,11.70
2023-04-11T18:21:36.171Z,11.70
2023-04-11T18:24:04.235Z,11.60
2023-04-11T18:26:31.845Z,11.50
2023-04-11T18:29:00.542Z,11.60
2023-04-11T18:31:28.292Z,11.50
2023-04-11T18:33:56.646Z,11.40
2023-04-11T18:36:26.161Z,11.30
2023-04-11T18:38:55.072Z,11.30
2023-04-11T18:41:25.109Z,11.30
2023-04-11T18:43:52.784Z,11.20
2023-04-11T18:46:20.432Z,11.10
2023-04-11T18:48:48.040Z,11.10
2023-04-11T18:51:15.564Z,11.00
2023-04-11T18:53:43.081Z,11.00
2023-04-11T18:56:10.640Z,10.90
2023-04-11T18:58:45.808Z,10.90
2023-04-11T19:01:16.539Z,10.80
2023-04-11T19:03:46.111Z,10.70
2023-04-11T19:06:14.084Z,10.70
2023-04-11T19:08:41.814Z,10.60
2023-04-11T19:11:09.366Z,10.70
2023-04-11T19:13:36.971Z,10.60
2023-04-11T19:16:05.065Z,10.70
2023-04-11T19:18:32.832Z,10.60
2023-04-11T19:21:00.934Z,10.60
2023-04-11T19:23:28.496Z,10.60
2023-04-11T19:25:56.771Z,10.60
2023-04-11T19:28:24.532Z,10.50
2023-04-11T19:30:52.159Z,10.60
2023-04-11T19:33:19.968Z,10.60
2023-04-11T19:35:47.800Z,10.60
2023-04-11T19:38:15.405Z,10.60
2023-04-11T19:40:42.881Z,10.60
2023-04-11T19:43:10.476Z,10.60
2023-04-11T19:45:38.078Z,10.60
2023-04-11T19:48:05.884Z,10.60
2023-04-11T19:50:33.517Z,10.60
2023-04-11T19:53:01.700Z,10.70
2023-04-11T19:55:29.442Z,10.70
2023-04-11T19:57:57.009Z,10.70
2023-04-11T20:00:27.326Z,10.70
2023-04-11T20:02:55.846Z,10.60
2023-04-11T20:05:24.019Z,10.60
2023-04-11T20:07:51.544Z,10.60
2023-04-11T20:10:19.025Z,10.70
2023-04-11T20:12:46.729Z,10.60
2023-04-11T20:15:15.085Z,10.60
2023-04-11T20:17:44.457Z,10.60
2023-04-11T20:20:13.786Z,10.70
2023-04-11T20:22:41.372Z,10.70
2023-04-11T20:25:11.861Z,10.80
2023-04-11T20:27:40.995Z,10.80
2023-04-11T20:30:12.333Z,10.80
2023-04-11T20:32:41.167Z,10.90
2023-04-11T20:35:10.122Z,10.80
2023-04-11T20:37:38.483Z,10.80
2023-04-11T20:40:08.220Z,10.90
2023-04-11T20:42:35.862Z,10.80
2023-04-11T20:45:06.074Z,10.80
2023-04-11T20:47:37.799Z,10.70
2023-04-11T20:50:11.303Z,10.60
2023-04-11T20:52:38.999Z,10.50
2023-04-11T20:55:07.169Z,10.50
2023-04-11T20:57:34.847Z,10.50
2023-04-11T21:00:17.563Z,10.40
2023-04-11T21:02:50.361Z,10.40
2023-04-11T21:05:23.288Z,10.40
2023-04-11T21:07:51.965Z,10.20
2023-04-11T21:10:21.086Z,10.30
2023-04-11T21:12:51.934Z,10.30
2023-04-11T21:15:21.932Z,10.10
2023-04-11T21:17:50.606Z,10.00
2023-04-11T21:20:18.636Z,10.00
2023-04-11T21:22:52.995Z,9.90
2023-04-11T21:25:21.433Z,9.80
2023-04-11T21:27:50.045Z,9.80
2023-04-11T21:30:17.758Z,9.70
2023-04-11T21:32:45.630Z,9.60
2023-04-11T21:35:13.442Z,9.60
2023-04-11T21:37:41.199Z,9.50
2023-04-11T21:40:09.360Z,9.40
2023-04-11T21:42:36.886Z,9.40
2023-04-11T21:45:04.797Z,9.40
2023-04-11T21:47:32.334Z,9.20
2023-04-11T21:49:59.788Z,9.20
2023-04-11T21:52:27.335Z,9.20
2023-04-11T21:54:55.004Z,9.10
2023-04-11T21:57:22.520Z,9.10
2023-04-11T21:59:50.035Z,9.00
2023-04-11T22:02:17.935Z,9.00
2023-04-11T22:05:04.098Z,9.00
2023-04-11T22:07:48.501Z,9.00
2023-04-11T22:10:24.041Z,8.90
2023-04-11T22:12:54.759Z,8.90
2023-04-11T22:15:24.469Z,8.90
2023-04-11T22:17:56.768Z,8.80
2023-04-11T22:20:24.508Z,8.80
2023-04-11T22:22:52.209Z,8.70
2023-04-11T22:25:22.899Z,8.70
2023-04-11T22:27:54.656Z,8.70
2023-04-11T22:30:23.855Z,8.70
2023-04-11T22:32:52.773Z,8.70
2023-04-11T22:35:20.759Z,8.60
2023-04-11T22:37:48.357Z,8.60
2023-04-11T22:40:22.159Z,8.60
2023-04-11T22:42:51.875Z,8.60
2023-04-11T22:45:21.771Z,8.60
2023-04-11T22:47:54.363Z,8.60
2023-04-11T22:50:22.250Z,8.60
2023-04-11T22:52:50.284Z,8.50
2023-04-11T22:55:20.130Z,8.50
2023-04-11T22:57:47.780Z,8.50
2023-04-11T23:00:17.639Z,8.50
2023-04-11T23:02:45.478Z,8.50
2023-04-11T23:05:13.278Z,8.40
2023-04-11T23:07:41.039Z,8.50
2023-04-11T23:10:09.188Z,8.40
2023-04-11T23:12:37.371Z,8.50
2023-04-11T23:15:05.227Z,8.50
2023-04-11T23:17:33.266Z,8.50
2023-04-11T23:20:00.895Z,8.50
2023-04-11T23:22:28.347Z,8.40
2023-04-11T23:24:55.767Z,8.40
2023-04-11T23:27:23.692Z,8.50
2023-04-11T23:29:52.850Z,8.50
2023-04-11T23:32:21.293Z,8.50
2023-04-11T23:34:48.998Z,8.40
2023-04-11T23:37:16.901Z,8.50
2023-04-11T23:39:44.307Z,8.50
2023-04-11T23:42:11.782Z,8.50
2023-04-11T23:44:39.248Z,8.50
2023-04-11T23:47:07.236Z,8.40
2023-04-11T23:49:34.865Z,8.40
2023-04-11T23:52:02.944Z,8.40
2023-04-11T23:54:31.408Z,8.40
2023-04-11T23:56:58.975Z,8.40
2023-04-11T23:59:26.364Z,8.50
